createdAt,value
2022-12-01T00:01:02.210Z,19.55
2022-12-01T00:03:32.494Z,19.23
2022-12-01T00:06:12.030Z,20.83
2022-12-01T00:08:38.687Z,20.35
2022-12-01T00:11:07.175Z,19.60
2022-12-01T00:13:34.086Z,20.00
2022-12-01T00:16:14.474Z,20.10
2022-12-01T00:18:41.160Z,20.70
2022-12-01T00:21:14.589Z,20.85
2022-12-01T00:23:46.046Z,19.80
2022-12-01T00:26:12.445Z,17.27
2022-12-01T00:28:39.121Z,21.60
2022-12-01T00:31:12.531Z,19.92
2022-12-01T00:33:39.485Z,21.08
2022-12-01T00:36:07.260Z,18.40
2022-12-01T00:38:34.124Z,20.48
2022-12-01T00:41:00.580Z,19.95
2022-12-01T00:43:27.042Z,20.58
2022-12-01T00:45:53.864Z,19.70
2022-12-01T00:48:20.259Z,21.08
2022-12-01T00:50:47.213Z,19.83
2022-12-01T00:53:13.647Z,20.63
2022-12-01T00:55:40.406Z,19.83
2022-12-01T00:58:07.485Z,18.88
2022-12-01T01:00:34.042Z,18.30
2022-12-01T01:03:00.413Z,18.55
2022-12-01T01:05:26.806Z,18.60
2022-12-01T01:07:53.219Z,18.42
2022-12-01T01:10:19.651Z,18.83
2022-12-01T01:12:46.057Z,19.98
2022-12-01T01:15:12.677Z,19.30
2022-12-01T01:17:39.439Z,17.95
2022-12-01T01:20:06.819Z,18.45
2022-12-01T01:22:34.967Z,19.55
2022-12-01T01:25:01.368Z,18.98
2022-12-01T01:27:27.770Z,19.77
2022-12-01T01:29:54.142Z,19.25
2022-12-01T01:32:20.811Z,19.10
2022-12-01T01:34:47.203Z,18.60
2022-12-01T01:37:13.577Z,19.70
2022-12-01T01:39:39.986Z,18.67
2022-12-01T01:42:06.358Z,19.60
2022-12-01T01:44:49.806Z,19.70
2022-12-01T01:47:32.961Z,18.67
2022-12-01T01:50:06.067Z,19.42
2022-12-01T01:52:34.102Z,19.10
2022-12-01T01:55:00.735Z,19.42
2022-12-01T01:57:29.107Z,18.85
2022-12-01T02:00:00.035Z,18.10
2022-12-01T02:02:26.565Z,18.75
2022-12-01T02:04:59.438Z,18.73
2022-12-01T02:07:25.988Z,19.92
2022-12-01T02:09:53.840Z,19.88
2022-12-01T02:12:48.047Z,19.08
2022-12-01T02:15:37.118Z,18.10
2022-12-01T02:18:18.734Z,19.02
2022-12-01T02:21:03.865Z,18.88
2022-12-01T02:23:42.522Z,18.70
2022-12-01T02:26:35.390Z,21.35
2022-12-01T02:29:26.890Z,18.83
2022-12-01T02:32:16.725Z,19.10
2022-12-01T02:34:58.623Z,20.17
2022-12-01T02:37:32.420Z,19.23
2022-12-01T02:40:21.985Z,20.70
2022-12-01T02:43:04.696Z,19.42
2022-12-01T02:45:48.270Z,19.27
2022-12-01T02:48:21.128Z,19.17
2022-12-01T02:50:48.142Z,19.25
2022-12-01T02:53:16.079Z,18.42
2022-12-01T02:55:53.426Z,19.60
2022-12-01T02:58:20.171Z,19.25
2022-12-01T03:00:57.353Z,20.02
2022-12-01T03:03:45.850Z,18.23
2022-12-01T03:06:54.323Z,19.80
2022-12-01T03:09:53.388Z,20.63
2022-12-01T03:12:45.130Z,19.75
2022-12-01T03:15:14.211Z,19.48
2022-12-01T03:17:50.115Z,20.42
2022-12-01T03:20:22.562Z,21.33
2022-12-01T03:22:53.694Z,21.52
2022-12-01T03:25:21.593Z,19.58
2022-12-01T03:28:19.363Z,21.05
2022-12-01T03:30:36.935Z,20.25
2022-12-01T03:33:10.346Z,22.33
2022-12-01T03:35:47.641Z,19.73
2022-12-01T03:38:28.107Z,22.77
2022-12-01T03:40:59.611Z,21.35
2022-12-01T03:43:30.666Z,20.58
2022-12-01T03:46:37.998Z,20.27
2022-12-01T03:49:05.629Z,20.70
2022-12-01T03:51:58.378Z,21.05
2022-12-01T03:54:45.325Z,21.70
2022-12-01T03:57:14.731Z,19.58
2022-12-01T03:59:42.380Z,21.42
2022-12-01T04:02:08.881Z,20.83
2022-12-01T04:04:35.435Z,19.98
2022-12-01T04:07:01.869Z,19.98
2022-12-01T04:09:28.556Z,20.95
2022-12-01T04:12:13.583Z,19.40
2022-12-01T04:14:40.000Z,21.15
2022-12-01T04:17:06.503Z,20.38
2022-12-01T04:19:32.918Z,21.02
2022-12-01T04:21:59.330Z,21.98
2022-12-01T04:24:25.761Z,20.92
2022-12-01T04:26:52.176Z,21.23
2022-12-01T04:29:18.647Z,18.83
2022-12-01T04:31:45.103Z,20.23
2022-12-01T04:34:11.566Z,20.08
2022-12-01T04:36:38.004Z,21.65
2022-12-01T04:39:04.463Z,21.38
2022-12-01T04:41:30.889Z,22.55
2022-12-01T04:43:57.282Z,23.88
2022-12-01T04:46:23.895Z,23.27
2022-12-01T04:48:50.811Z,21.15
2022-12-01T04:51:17.534Z,21.35
2022-12-01T04:53:44.501Z,20.10
2022-12-01T04:56:10.882Z,22.23
2022-12-01T04:58:40.148Z,23.30
2022-12-01T05:01:08.981Z,21.92
2022-12-01T05:03:39.633Z,23.70
2022-12-01T05:06:08.499Z,22.88
2022-12-01T05:08:34.925Z,21.65
2022-12-01T05:11:01.358Z,21.55
2022-12-01T05:13:27.827Z,20.75
2022-12-01T05:15:54.320Z,23.10
2022-12-01T05:18:20.736Z,22.67
2022-12-01T05:20:59.203Z,20.90
2022-12-01T05:23:27.785Z,21.27
2022-12-01T05:25:54.590Z,21.20
2022-12-01T05:28:22.259Z,22.63
2022-12-01T05:30:49.520Z,22.08
2022-12-01T05:33:15.981Z,21.80
2022-12-01T05:35:42.428Z,20.92
2022-12-01T05:38:08.878Z,21.63
2022-12-01T05:40:36.510Z,21.50
2022-12-01T05:43:02.985Z,23.00
2022-12-01T05:45:29.426Z,21.02
2022-12-01T05:47:57.054Z,21.33
2022-12-01T05:50:24.290Z,20.63
2022-12-01T05:52:50.682Z,20.23
2022-12-01T05:55:17.130Z,20.95
2022-12-01T05:57:43.585Z,21.77
2022-12-01T06:00:10.615Z,21.40
2022-12-01T06:02:39.655Z,21.48
2022-12-01T06:05:06.919Z,19.88
2022-12-01T06:07:35.545Z,20.75
2022-12-01T06:10:02.322Z,19.80
2022-12-01T06:12:28.958Z,21.00
2022-12-01T06:14:55.429Z,20.48
2022-12-01T06:17:21.827Z,20.08
2022-12-01T06:19:48.558Z,19.98
2022-12-01T06:22:15.055Z,19.25
2022-12-01T06:24:41.566Z,19.58
2022-12-01T06:27:07.972Z,21.35
2022-12-01T06:29:39.042Z,21.02
2022-12-01T06:32:08.398Z,21.65
2022-12-01T06:34:34.975Z,20.35
2022-12-01T06:37:01.420Z,21.52
2022-12-01T06:39:27.795Z,20.65
2022-12-01T06:41:54.254Z,19.13
2022-12-01T06:44:20.677Z,20.35
2022-12-01T06:46:47.148Z,20.13
2022-12-01T06:49:13.560Z,22.00
2022-12-01T06:51:40.075Z,21.23
2022-12-01T06:54:06.481Z,20.38
2022-12-01T06:56:32.858Z,21.08
2022-12-01T06:58:59.766Z,20.73
2022-12-01T07:01:26.612Z,19.77
2022-12-01T07:03:53.096Z,19.73
2022-12-01T07:06:19.492Z,19.52
2022-12-01T07:08:45.915Z,19.77
2022-12-01T07:11:14.162Z,19.45
2022-12-01T07:13:41.822Z,20.58
2022-12-01T07:16:08.789Z,20.65
2022-12-01T07:18:36.981Z,19.52
2022-12-01T07:21:05.352Z,20.73
2022-12-01T07:23:31.870Z,21.00
2022-12-01T07:26:15.396Z,19.65
2022-12-01T07:28:42.267Z,19.73
2022-12-01T07:31:14.411Z,20.67
2022-12-01T07:33:41.370Z,20.73
2022-12-01T07:36:08.383Z,20.23
2022-12-01T07:38:35.736Z,19.88
2022-12-01T07:41:07.397Z,20.35
2022-12-01T07:43:34.364Z,20.55
2022-12-01T07:46:05.322Z,20.55
2022-12-01T07:48:31.763Z,21.25
2022-12-01T07:50:58.158Z,20.25
2022-12-01T07:53:24.526Z,21.52
2022-12-01T07:55:50.983Z,21.75
2022-12-01T07:58:17.480Z,20.10
2022-12-01T08:00:43.903Z,20.60
2022-12-01T08:03:10.381Z,22.02
2022-12-01T08:05:36.806Z,21.98
2022-12-01T08:08:03.332Z,22.60
2022-12-01T08:10:29.872Z,21.88
2022-12-01T08:12:56.234Z,20.90
2022-12-01T08:15:22.664Z,20.20
2022-12-01T08:17:49.063Z,22.45
2022-12-01T08:20:18.476Z,21.02
2022-12-01T08:22:48.774Z,20.30
2022-12-01T08:25:15.179Z,21.75
2022-12-01T08:27:41.569Z,21.45
2022-12-01T08:30:08.688Z,22.38
2022-12-01T08:32:36.634Z,21.65
2022-12-01T08:35:03.382Z,22.65
2022-12-01T08:37:29.965Z,20.33
2022-12-01T08:39:56.322Z,21.92
2022-12-01T08:42:22.719Z,24.10
2022-12-01T08:44:49.211Z,20.23
2022-12-01T08:47:18.732Z,22.08
2022-12-01T08:49:45.580Z,23.50
2022-12-01T08:52:12.035Z,21.67
2022-12-01T08:54:38.423Z,22.98
2022-12-01T08:57:04.806Z,22.50
2022-12-01T08:59:31.150Z,22.40
2022-12-01T09:01:59.645Z,23.40
2022-12-01T09:04:29.320Z,24.40
2022-12-01T09:06:58.329Z,20.63
2022-12-01T09:09:27.496Z,22.60
2022-12-01T09:11:55.063Z,23.20
2022-12-01T09:14:22.558Z,23.73
2022-12-01T09:16:50.106Z,22.70
2022-12-01T09:19:24.247Z,23.17
2022-12-01T09:21:51.275Z,23.05
2022-12-01T09:24:17.779Z,25.10
2022-12-01T09:26:44.179Z,24.38
2022-12-01T09:29:13.513Z,23.17
2022-12-01T09:31:40.020Z,23.05
2022-12-01T09:34:08.491Z,22.67
2022-12-01T09:36:36.558Z,23.08
2022-12-01T09:39:04.316Z,22.13
2022-12-01T09:41:47.440Z,23.02
2022-12-01T09:44:20.619Z,24.15
2022-12-01T09:46:50.420Z,21.83
2022-12-01T09:49:44.902Z,22.70
2022-12-01T09:52:12.931Z,21.92
2022-12-01T09:54:39.435Z,23.25
2022-12-01T09:57:06.188Z,22.50
2022-12-01T09:59:35.990Z,24.30
2022-12-01T10:02:03.997Z,23.50
2022-12-01T10:04:41.697Z,22.98
2022-12-01T10:10:37.987Z,22.48
2022-12-01T10:13:16.251Z,21.95
2022-12-01T10:15:54.215Z,23.55
2022-12-01T10:18:32.792Z,23.98
2022-12-01T10:21:11.387Z,23.45
2022-12-01T10:23:56.355Z,22.83
2022-12-01T10:26:40.335Z,24.15
2022-12-01T10:29:21.742Z,23.75
2022-12-01T10:32:03.707Z,24.00
2022-12-01T10:34:33.806Z,23.35
2022-12-01T10:39:34.517Z,21.67
2022-12-01T10:42:15.360Z,23.27
2022-12-01T10:44:42.669Z,22.98
2022-12-01T10:47:18.608Z,24.42
2022-12-01T10:49:48.478Z,21.55
2022-12-01T10:52:44.847Z,21.73
2022-12-01T10:55:24.747Z,22.85
2022-12-01T10:57:53.135Z,22.33
2022-12-01T11:00:58.427Z,23.02
2022-12-01T11:03:23.908Z,21.55
2022-12-01T11:05:57.295Z,21.05
2022-12-01T11:08:46.110Z,23.55
2022-12-01T11:11:34.940Z,22.55
2022-12-01T11:14:05.108Z,24.00
2022-12-01T11:16:41.395Z,22.42
2022-12-01T11:19:34.510Z,21.27
2022-12-01T11:22:22.553Z,21.70
2022-12-01T11:24:58.571Z,23.13
2022-12-01T11:27:36.495Z,23.13
2022-12-01T11:30:07.335Z,22.45
2022-12-01T11:32:38.902Z,22.35
2022-12-01T11:35:14.459Z,22.30
2022-12-01T11:38:13.117Z,22.05
2022-12-01T11:40:48.119Z,22.48
2022-12-01T11:43:37.937Z,19.58
2022-12-01T11:46:07.898Z,23.25
2022-12-01T11:48:36.175Z,23.05
2022-12-01T11:51:29.966Z,21.48
2022-12-01T11:54:21.537Z,20.38
2022-12-01T11:56:56.113Z,21.00
2022-12-01T11:59:30.905Z,20.20
2022-12-01T12:02:18.683Z,21.77
2022-12-01T12:04:57.429Z,20.55
2022-12-01T12:07:42.846Z,20.25
2022-12-01T12:10:41.847Z,22.42
2022-12-01T12:13:21.664Z,20.98
2022-12-01T12:15:53.767Z,22.85
2022-12-01T12:18:30.982Z,22.05
2022-12-01T12:21:04.074Z,21.42
2022-12-01T12:23:56.255Z,21.30
2022-12-01T12:26:30.983Z,21.08
2022-12-01T12:29:13.988Z,19.40
2022-12-01T12:32:30.284Z,20.60
2022-12-01T12:35:16.676Z,21.15
2022-12-01T12:37:54.571Z,20.80
2022-12-01T12:40:29.551Z,20.88
2022-12-01T12:43:14.146Z,22.38
2022-12-01T12:45:51.722Z,19.75
2022-12-01T12:49:18.225Z,19.60
2022-12-01T12:51:43.183Z,20.67
2022-12-01T12:54:27.383Z,18.63
2022-12-01T12:57:19.064Z,21.15
2022-12-01T13:00:05.061Z,19.60
2022-12-01T13:03:04.805Z,19.42
2022-12-01T13:06:08.148Z,19.35
2022-12-01T13:08:40.257Z,21.15
2022-12-01T13:11:20.369Z,21.67
2022-12-01T13:14:06.817Z,21.13
2022-12-01T13:16:42.397Z,19.63
2022-12-01T13:19:37.572Z,19.98
2022-12-01T13:22:04.400Z,20.63
2022-12-01T13:24:31.215Z,18.65
2022-12-01T13:27:02.018Z,18.98
2022-12-01T13:29:47.725Z,19.42
2022-12-01T13:32:36.384Z,20.38
2022-12-01T13:37:48.320Z,20.95
2022-12-01T13:40:26.155Z,22.15
2022-12-01T13:43:10.393Z,20.77
2022-12-01T13:45:38.672Z,19.38
2022-12-01T13:48:06.384Z,19.50
2022-12-01T13:50:35.896Z,19.17
2022-12-01T13:53:17.597Z,18.35
2022-12-01T13:56:03.919Z,18.60
2022-12-01T13:58:33.203Z,19.98
2022-12-01T14:01:41.706Z,17.85
2022-12-01T14:04:11.042Z,18.15
2022-12-01T14:06:46.401Z,18.90
2022-12-01T14:09:19.580Z,18.65
2022-12-01T14:11:58.077Z,18.67
2022-12-01T14:14:27.953Z,19.38
2022-12-01T14:16:58.452Z,19.58
2022-12-01T14:19:46.910Z,18.23
2022-12-01T14:22:33.462Z,19.52
2022-12-01T14:25:00.635Z,17.13
2022-12-01T14:27:39.188Z,17.38
2022-12-01T14:30:40.252Z,17.00
2022-12-01T14:33:40.927Z,16.80
2022-12-01T14:36:54.412Z,16.50
2022-12-01T14:39:29.881Z,17.05
2022-12-01T14:41:56.927Z,17.02
2022-12-01T14:44:28.747Z,18.05
2022-12-01T14:47:10.587Z,16.60
2022-12-01T14:49:53.745Z,17.00
2022-12-01T14:52:29.163Z,16.23
2022-12-01T14:54:57.883Z,16.88
2022-12-01T14:57:52.603Z,16.27
2022-12-01T15:00:24.350Z,17.55
2022-12-01T15:02:55.124Z,17.73
2022-12-01T15:05:25.006Z,17.27
2022-12-01T15:08:06.795Z,16.33
2022-12-01T15:10:52.651Z,19.42
2022-12-01T15:13:31.910Z,15.73
2022-12-01T15:16:01.695Z,15.77
2022-12-01T15:18:33.680Z,16.48
2022-12-01T15:21:10.719Z,15.88
2022-12-01T15:23:37.639Z,17.15
2022-12-01T15:26:04.244Z,15.98
2022-12-01T15:28:36.488Z,15.07
2022-12-01T15:31:09.662Z,15.85
2022-12-01T15:33:38.910Z,16.33
2022-12-01T15:36:26.997Z,15.93
2022-12-01T15:38:53.911Z,16.48
2022-12-01T15:41:29.725Z,17.23
2022-12-01T15:43:58.875Z,16.15
2022-12-01T15:46:30.865Z,16.75
2022-12-01T15:49:18.125Z,15.88
2022-12-01T15:51:45.363Z,14.82
2022-12-01T15:54:22.603Z,15.25
2022-12-01T15:56:54.020Z,14.68
2022-12-01T15:59:39.632Z,14.48
2022-12-01T16:02:30.628Z,14.52
2022-12-01T16:05:09.196Z,14.75
2022-12-01T16:08:11.425Z,14.32
2022-12-01T16:10:41.510Z,12.82
2022-12-01T16:13:36.249Z,14.57
2022-12-01T16:16:30.613Z,15.27
2022-12-01T16:19:03.138Z,14.48
2022-12-01T16:21:45.384Z,17.35
2022-12-01T16:24:16.148Z,15.95
2022-12-01T16:26:51.841Z,17.40
2022-12-01T16:29:20.283Z,17.25
2022-12-01T16:32:12.590Z,17.00
2022-12-01T16:34:45.911Z,16.67
2022-12-01T16:37:13.434Z,18.55
2022-12-01T16:39:39.788Z,16.08
2022-12-01T16:42:06.226Z,17.90
2022-12-01T16:44:32.719Z,18.05
2022-12-01T16:46:59.092Z,16.95
2022-12-01T16:49:25.554Z,15.88
2022-12-01T16:51:56.782Z,15.70
2022-12-01T16:54:23.802Z,15.40
2022-12-01T16:56:50.913Z,15.07
2022-12-01T16:59:17.258Z,14.13
2022-12-01T17:01:43.649Z,15.15
2022-12-01T17:04:10.062Z,13.98
2022-12-01T17:06:38.242Z,14.80
2022-12-01T17:09:05.020Z,13.98
2022-12-01T17:11:32.110Z,15.13
2022-12-01T17:13:58.587Z,14.43
2022-12-01T17:16:25.082Z,14.73
2022-12-01T17:18:51.558Z,15.05
2022-12-01T17:21:17.991Z,14.60
2022-12-01T17:23:44.615Z,14.30
2022-12-01T17:26:13.518Z,14.57
2022-12-01T17:28:39.949Z,15.55
2022-12-01T17:31:07.020Z,15.70
2022-12-01T17:33:34.522Z,17.25
2022-12-01T17:36:03.181Z,15.88
2022-12-01T17:38:29.943Z,16.67
2022-12-01T17:41:08.479Z,16.10
2022-12-01T17:43:36.127Z,17.05
2022-12-01T17:46:03.502Z,17.63
2022-12-01T17:48:30.067Z,16.25
2022-12-01T17:50:56.666Z,16.77
2022-12-01T17:53:23.086Z,16.63
2022-12-01T17:55:49.500Z,16.45
2022-12-01T17:58:18.765Z,16.63
2022-12-01T18:00:45.143Z,17.58
2022-12-01T18:03:11.653Z,18.38
2022-12-01T18:05:38.175Z,18.52
2022-12-01T18:08:04.938Z,18.15
2022-12-01T18:10:31.388Z,18.08
2022-12-01T18:12:57.734Z,18.13
2022-12-01T18:15:26.536Z,19.48
2022-12-01T18:17:54.984Z,18.35
2022-12-01T18:20:21.455Z,18.40
2022-12-01T18:22:48.473Z,19.65
2022-12-01T18:25:15.101Z,19.88
2022-12-01T18:27:41.615Z,19.48
2022-12-01T18:30:11.573Z,16.65
2022-12-01T18:32:38.038Z,18.48
2022-12-01T18:35:05.103Z,18.95
2022-12-01T18:37:31.635Z,18.65
2022-12-01T18:39:57.991Z,17.58
2022-12-01T18:42:24.578Z,17.80
2022-12-01T18:44:51.370Z,18.23
2022-12-01T18:47:18.006Z,17.88
2022-12-01T18:49:44.352Z,17.90
2022-12-01T18:52:10.751Z,18.20
2022-12-01T18:54:37.184Z,17.13
2022-12-01T18:57:03.661Z,17.98
2022-12-01T18:59:30.147Z,17.63
2022-12-01T19:01:56.684Z,16.83
2022-12-01T19:04:23.210Z,19.08
2022-12-01T19:06:49.571Z,17.75
2022-12-01T19:09:16.079Z,16.73
2022-12-01T19:11:43.258Z,19.02
2022-12-01T19:14:14.435Z,18.85
2022-12-01T19:16:41.685Z,17.83
2022-12-01T19:19:09.628Z,17.75
2022-12-01T19:21:36.017Z,17.75
2022-12-01T19:24:02.377Z,17.20
2022-12-01T19:26:28.808Z,19.40
2022-12-01T19:28:55.180Z,17.48
2022-12-01T19:31:23.588Z,18.85
2022-12-01T19:33:51.491Z,17.98
2022-12-01T19:36:20.758Z,18.27
2022-12-01T19:38:47.683Z,18.25
2022-12-01T19:41:14.410Z,20.60
2022-12-01T19:43:42.124Z,19.90
2022-12-01T19:46:11.316Z,21.77
2022-12-01T19:48:38.147Z,20.15
2022-12-01T19:51:05.271Z,20.55
2022-12-01T19:53:34.081Z,20.00
2022-12-01T19:56:05.080Z,21.77
2022-12-01T19:58:34.754Z,21.63
2022-12-01T20:01:12.757Z,21.17
2022-12-01T20:03:40.541Z,22.33
2022-12-01T20:06:09.690Z,22.13
2022-12-01T20:08:36.347Z,21.77
2022-12-01T20:11:06.134Z,23.05
2022-12-01T20:13:33.950Z,21.60
2022-12-01T20:16:10.470Z,22.55
2022-12-01T20:18:37.638Z,22.73
2022-12-01T20:21:08.689Z,21.70
2022-12-01T20:23:35.937Z,22.35
2022-12-01T20:26:05.026Z,22.60
2022-12-01T20:28:32.239Z,21.85
2022-12-01T20:30:59.278Z,21.98
2022-12-01T20:33:27.903Z,22.65
2022-12-01T20:35:54.343Z,21.65
2022-12-01T20:38:27.086Z,22.38
2022-12-01T20:40:54.166Z,22.48
2022-12-01T20:43:20.618Z,21.98
2022-12-01T20:45:47.163Z,22.10
2022-12-01T20:48:13.871Z,21.02
2022-12-01T20:50:40.316Z,21.52
2022-12-01T20:53:07.006Z,22.23
2022-12-01T20:55:35.786Z,21.27
2022-12-01T20:58:02.980Z,20.88
2022-12-01T21:00:30.095Z,21.60
2022-12-01T21:02:57.131Z,22.75
2022-12-01T21:05:27.209Z,20.83
2022-12-01T21:07:54.463Z,22.10
2022-12-01T21:10:21.095Z,21.40
2022-12-01T21:13:08.622Z,20.23
2022-12-01T21:15:52.457Z,20.98
2022-12-01T21:18:26.585Z,21.65
2022-12-01T21:21:07.945Z,21.85
2022-12-01T21:23:34.405Z,20.55
2022-12-01T21:26:00.848Z,20.98
2022-12-01T21:28:27.296Z,19.88
2022-12-01T21:31:01.596Z,18.25
2022-12-01T21:33:32.291Z,20.13
2022-12-01T21:36:00.833Z,20.90
2022-12-01T21:38:27.378Z,20.50
2022-12-01T21:40:54.416Z,21.33
2022-12-01T21:43:23.177Z,22.38
2022-12-01T21:45:58.248Z,21.50
2022-12-01T21:48:24.976Z,21.65
2022-12-01T21:51:00.901Z,21.63
2022-12-01T21:53:33.383Z,19.67
2022-12-01T21:55:59.923Z,20.05
2022-12-01T21:58:29.491Z,20.52
2022-12-01T22:00:57.868Z,18.98
2022-12-01T22:03:34.473Z,19.58
2022-12-01T22:06:31.385Z,21.67
2022-12-01T22:09:01.267Z,19.05
2022-12-01T22:11:29.248Z,18.10
2022-12-01T22:14:13.144Z,17.25
2022-12-01T22:16:44.566Z,18.20
2022-12-01T22:19:20.905Z,18.42
2022-12-01T22:24:23.103Z,17.85
2022-12-01T22:27:10.600Z,17.90
2022-12-01T22:29:43.417Z,16.73
2022-12-01T22:32:12.863Z,18.65
2022-12-01T22:34:40.572Z,20.92
2022-12-01T22:37:16.908Z,18.88
2022-12-01T22:42:13.871Z,18.23
2022-12-01T22:44:41.431Z,19.58
2022-12-01T22:47:09.203Z,18.02
2022-12-01T22:49:35.714Z,19.42
2022-12-01T22:52:07.150Z,19.92
2022-12-01T22:54:38.146Z,20.38
2022-12-01T22:57:07.639Z,21.42
2022-12-01T22:59:36.109Z,20.88
2022-12-01T23:02:21.089Z,20.50
2022-12-01T23:04:56.379Z,20.98
2022-12-01T23:07:26.410Z,21.17
2022-12-01T23:12:25.243Z,21.60
2022-12-01T23:14:54.133Z,21.10
2022-12-01T23:17:28.959Z,20.77
2022-12-01T23:20:10.600Z,23.30
2022-12-01T23:22:37.848Z,22.05
2022-12-01T23:25:14.127Z,23.77
2022-12-01T23:30:08.115Z,23.40
2022-12-01T23:32:34.788Z,23.75
2022-12-01T23:35:01.351Z,24.88
2022-12-01T23:37:34.186Z,26.10
2022-12-01T23:40:01.714Z,26.50
2022-12-01T23:42:28.191Z,24.90
2022-12-01T23:44:54.663Z,27.30
2022-12-01T23:47:27.742Z,25.85
2022-12-01T23:50:00.972Z,26.75
2022-12-01T23:52:32.678Z,28.63
2022-12-01T23:54:59.090Z,26.80
2022-12-01T23:57:25.787Z,26.25
2022-12-01T23:59:59.228Z,27.08
